Latest Coastal Weather Observations for Bairnsdale

IDV60701

Issued at 7:52 am EDT Sunday 26 January 2020 (issued every 10 minutes, with the page automatically refreshed every 10 minutes)

About coastal observations | Map of coastal stations | Coastal observations for VIC | Marine services | Other Formats
Station Details ID: 085279 Name: BAIRNSDALE AIRPORT Lat: -37.88 Lon: 147.57 Height: 49.4 m
Data from the previous 72 hours. | See also: Recent months at Bairnsdale
Date/Time
EDT
Wind Sea
Height
m
Swell Vis
km
Cloud Weather Temp
°C
Press
hPa
Rain since
9am
mm
Dir  Spd
kts
Gust
kts
Height
m
Period
s
Dir
26/07:30am WNW 6 8 - - - - 9 - - 14.5 1012.4 0.0
26/07:00am WNW 5 7 - - - - 9 - - 13.5 1012.3 0.0
26/06:30am WNW 4 5 - - - - 9 - - 13.1 1012.1 0.0
26/06:00am WNW 4 5 - - - - 9 - - 12.9 1011.8 0.0
26/05:30am NNW 5 5 - - - - 6 - - 12.7 1011.6 0.0
26/05:00am SW 2 4 - - - - 7 - - 12.7 1011.6 0.0
26/04:30am SW 3 4 - - - - 7 - - 13.0 1011.7 0.0
26/04:20am SW 2 5 - - - - 7 - - 12.9 1011.7 0.0
26/04:02am CALM 0 0 - - - - 5 - - 13.0 1011.7 0.0
26/04:00am CALM 0 0 - - - - 6 - - 13.1 1011.7 0.0
26/03:30am CALM 0 0 - - - - 7 - - 13.5 1012.0 0.0
26/03:00am WSW 4 4 - - - - 7 - - 13.8 1012.1 0.0
26/02:30am WSW 4 5 - - - - 9 - - 14.3 1012.3 0.0
26/02:00am NNW 3 6 - - - - 10 - - 15.0 1012.7 0.0
26/01:30am NNW 3 4 - - - - 9 - - 15.0 1013.1 0.0
26/01:00am NE 1 4 - - - - 8 - - 14.8 1013.5 0.0
26/12:30am CALM 0 0 - - - - 9 - - 15.1 1013.8 0.0
26/12:00am CALM 0 0 - - - - 9 - - 15.5 1013.9 0.0
 
Date/Time
EDT
Wind Sea
Height
m
Swell Vis
km
Cloud Weather Temp
°C
Press
hPa
Rain since
9am
mm
Dir  Spd
kts
Gust
kts
Height
m
Period
s
Dir
25/11:30pm E 3 4 - - - - 10 - - 16.3 1014.3 0.0
25/11:00pm CALM 0 0 - - - - 10 - - 16.2 1014.7 0.0
25/10:30pm SE 5 6 - - - - 10 - - 17.6 1014.9 0.0
25/10:00pm SE 4 5 - - - - 10 - - 17.7 1015.0 0.0
25/09:30pm ESE 4 5 - - - - 10 - - 17.9 1014.8 0.0
25/09:00pm ESE 5 6 - - - - 10 - - 18.3 1014.4 0.0
25/08:30pm SE 6 7 - - - - 10 - - 19.0 1014.3 0.0
25/08:00pm SE 8 10 - - - - 10 - - 19.9 1013.9 0.0
25/07:30pm SSE 10 13 - - - - 10 - - 21.0 1013.5 0.0
25/07:00pm SSE 10 13 - - - - 10 - - 21.5 1013.1 0.0
25/06:30pm SSE 10 13 - - - - 10 - - 22.4 1012.9 0.0
25/06:00pm SSE 12 14 - - - - 10 - - 22.1 1012.8 0.0
25/05:30pm SE 12 16 - - - - 8 - - 22.6 1012.8 0.0
25/05:00pm SSE 12 16 - - - - 9 - - 23.3 1012.7 0.0
25/04:30pm SE 13 17 - - - - 10 - - 23.5 1012.6 0.0
25/04:00pm SE 13 17 - - - - 9 - - 23.8 1012.5 0.0
25/03:30pm SE 10 13 - - - - 10 - - 24.7 1012.4 0.0
25/03:00pm SE 10 14 - - - - 10 - - 24.1 1012.5 0.0
25/02:30pm SSE 12 16 - - - - 9 - - 24.2 1012.7 0.0
25/02:00pm SSE 12 15 - - - - 9 - - 24.4 1012.8 0.0
25/01:30pm SSE 6 10 - - - - 10 - - 24.9 1013.0 0.0
25/01:00pm SSE 7 10 - - - - 10 - - 24.6 1013.3 0.0
25/12:30pm SSW 4 8 - - - - 10 - - 24.3 1013.5 0.0
25/12:00pm SSW 6 10 - - - - 10 - - 23.3 1013.8 0.0
25/11:30am S 5 7 - - - - 10 - - 23.6 1014.0 0.0
25/11:00am WSW 3 5 - - - - 10 - - 23.0 1014.1 0.0
25/10:30am WNW 3 5 - - - - 10 - - 21.9 1014.3 0.0
25/10:00am WSW 4 5 - - - - 10 - - 20.6 1014.4 0.0
25/09:30am WNW 5 8 - - - - 10 - - 19.0 1014.7 0.0
25/09:00am WNW 7 10 - - - - 10 - - 17.7 1014.7 0.0
25/08:30am NW 8 11 - - - - 10 - - 16.6 1014.4 0.0
25/08:00am NW 8 10 - - - - 10 - - 15.4 1014.0 0.0
25/07:30am WNW 8 9 - - - - 10 - - 14.2 1013.7 0.0
25/07:00am WNW 7 9 - - - - 10 - - 13.1 1013.6 0.0
25/06:30am NW 5 6 - - - - 10 - - 11.4 1013.6 0.0
25/06:00am NW 5 5 - - - - 10 Mostly clear - 11.6 1013.6 0.0
25/05:30am NW 4 5 - - - - 10 Cloudy - 11.9 1013.4 0.0
25/05:00am NW 5 6 - - - - 10 Cloudy - 12.1 1013.3 0.0
25/04:30am NW 6 7 - - - - 10 Partly cloudy - 12.3 1013.6 0.0
25/04:00am NNW 5 5 - - - - 10 - - 12.4 1013.5 0.0
25/03:30am N 3 3 - - - - 10 - - 12.3 1013.9 0.0
25/03:00am CALM 0 0 - - - - 10 - - 12.3 1013.9 0.0
25/02:30am CALM 0 0 - - - - 10 - - 12.3 1014.1 0.0
25/02:00am ENE 2 4 - - - - 10 - - 13.6 1014.1 0.0
25/01:30am ENE 3 4 - - - - 10 - - 14.6 1014.4 0.0
25/01:00am ENE 3 4 - - - - 10 Partly cloudy - 15.0 1014.5 0.0
25/12:30am E 5 6 - - - - 10 Partly cloudy - 15.4 1014.8 0.0
25/12:00am ENE 5 6 - - - - 10 - - 15.3 1014.7 0.0
 
Date/Time
EDT
Wind Sea
Height
m
Swell Vis
km
Cloud Weather Temp
°C
Press
hPa
Rain since
9am
mm
Dir  Spd
kts
Gust
kts
Height
m
Period
s
Dir
24/11:30pm NE 5 6 - - - - 10 - - 15.4 1014.7 0.0
24/11:00pm NE 5 6 - - - - 10 - - 15.7 1014.7 0.0
24/10:30pm NE 6 8 - - - - 10 - - 16.0 1014.8 0.0
24/10:00pm ENE 5 7 - - - - 10 - - 16.4 1014.6 0.0
24/09:30pm ENE 6 9 - - - - 10 - - 16.8 1014.2 0.0
24/09:00pm ENE 7 9 - - - - 10 - - 17.4 1013.7 0.0
24/08:30pm ENE 8 11 - - - - 10 - - 17.8 1013.3 0.0
24/08:00pm E 10 13 - - - - 10 - - 18.6 1012.9 0.0
24/07:30pm E 12 15 - - - - 10 - - 19.2 1012.5 0.0
24/07:00pm ESE 12 17 - - - - 10 - - 20.2 1011.9 0.0
24/06:30pm ESE 14 17 - - - - 10 - - 21.2 1011.4 0.0
24/06:00pm S 10 15 - - - - 10 - - 22.8 1011.0 0.0
24/05:30pm SSW 13 19 - - - - 10 - - 23.2 1010.8 0.0
24/05:00pm SSW 14 18 - - - - 10 - - 23.1 1010.5 0.0
24/04:30pm S 12 18 - - - - 10 - - 23.3 1010.5 0.0
24/04:00pm SSW 14 19 - - - - 10 - - 23.4 1010.3 0.0
24/03:30pm SSW 12 17 - - - - 10 - - 23.1 1010.2 0.0
24/03:00pm SW 14 21 - - - - 10 - - 23.2 1010.4 0.0
24/02:30pm SW 13 18 - - - - 10 - - 23.3 1010.2 0.0
24/02:00pm SW 13 18 - - - - 10 - - 22.9 1010.4 0.0
24/01:30pm SSW 14 18 - - - - 10 - - 22.4 1010.5 0.0
24/01:00pm SW 9 13 - - - - 10 - - 21.6 1010.6 0.0
24/12:30pm WSW 10 15 - - - - 10 - - 21.4 1010.8 0.0
24/12:00pm SW 8 13 - - - - 10 - - 20.7 1010.8 0.0
24/11:30am WSW 10 15 - - - - 10 - - 20.1 1010.8 0.0
24/11:00am W 12 16 - - - - 10 - - 19.9 1010.9 0.0
24/10:30am WNW 9 14 - - - - 10 - - 19.1 1011.0 0.0
24/10:00am NW 6 9 - - - - 10 - - 18.7 1011.0 0.0
24/09:30am NW 4 7 - - - - 10 - - 17.8 1010.9 0.0
24/09:00am NNW 5 7 - - - - 10 - - 16.4 1010.8 9.2
24/08:30am NNW 6 8 - - - - 10 - - 14.9 1010.2 9.2
24/08:00am NNW 6 8 - - - - 10 - - 13.7 1009.7 9.2
24/07:30am NW 6 8 - - - - 10 - - 12.5 1009.2 9.0
24/07:00am NW 4 5 - - - - 10 - - 11.2 1008.6 9.0
24/06:30am NW 5 6 - - - - 10 - - 10.1 1008.3 8.6
24/06:00am NW 5 5 - - - - 10 - Rain 10.5 1007.9 8.0
24/05:30am NNW 6 7 - - - - 10 - - 11.0 1007.7 7.4
24/05:00am NW 4 5 - - - - 10 - - 11.3 1007.3 6.8
24/04:30am NNW 4 4 - - - - 10 - - 12.6 1007.1 6.0
24/04:00am W 7 9 - - - - 10 - - 13.2 1007.0 5.6
24/03:30am W 5 7 - - - - 10 - - 12.7 1007.1 5.2
24/03:00am WNW 6 7 - - - - 10 - Recent precip. 13.3 1007.1 5.2
24/02:30am WNW 5 7 - - - - 10 Partly cloudy - 13.9 1007.4 5.0
24/02:00am W 6 8 - - - - 10 Partly cloudy - 14.3 1007.4 5.0
24/01:30am W 4 6 - - - - 10 Partly cloudy - 14.2 1007.2 4.8
24/01:00am WNW 5 8 - - - - 10 Partly cloudy - 14.7 1007.1 4.6
24/12:30am W 4 5 - - - - 10 Partly cloudy - 14.6 1006.8 4.6
24/12:00am NW 3 6 - - - - 10 Mostly clear Recent precip. 15.0 1006.4 4.4
 
Date/Time
EDT
Wind Sea
Height
m
Swell Vis
km
Cloud Weather Temp
°C
Press
hPa
Rain since
9am
mm
Dir  Spd
kts
Gust
kts
Height
m
Period
s
Dir
23/11:30pm WNW 4 6 - - - - 10 - - 15.2 1006.0 4.4
23/11:00pm W 7 8 - - - - 10 Partly cloudy - 15.9 1005.5 4.2
23/10:30pm SW 7 11 - - - - 10 Partly cloudy - 16.5 1005.1 4.0
23/10:00pm SW 15 19 - - - - 10 Partly cloudy - 16.9 1004.1 4.0
23/09:30pm SW 16 22 - - - - 10 Partly cloudy - 17.4 1003.7 3.8
23/09:00pm SW 18 26 - - - - 10 Cloudy Recent precip. 18.5 1003.1 3.6
23/08:59pm SW 17 24 - - - - 10 Partly cloudy - 18.6 1003.1 3.6
23/08:30pm SW 9 12 - - - - 10 Partly cloudy - 19.4 1001.9 3.4
23/08:00pm SW 7 9 - - - - 10 Partly cloudy - 19.0 1001.1 3.4
23/07:30pm SW 10 13 - - - - 10 Partly cloudy - 19.1 1000.5 3.0
23/07:00pm SW 11 13 - - - - 10 Partly cloudy - 19.0 1000.1 3.0
23/06:30pm SW 15 21 - - - - 10 Partly cloudy - 19.1 999.6 2.8
23/06:00pm SSW 15 19 - - - - 10 Cloudy Recent precip. 19.5 998.9 2.4
23/05:30pm NNW 14 20 - - - - 10 Partly cloudy - 23.3 997.9 2.2
23/05:00pm NW 15 22 - - - - 10 - - 23.7 997.8 2.2
23/04:30pm NNW 16 22 - - - - 10 Partly cloudy - 23.6 997.5 2.0
23/04:00pm NNW 15 22 - - - - 10 Partly cloudy - 23.8 997.5 1.8
23/03:30pm NW 9 15 - - - - 10 Partly cloudy - 22.9 997.3 1.6
23/03:00pm WNW 9 13 - - - - 10 Mostly cloudy Rain 23.7 997.1 1.6
23/02:30pm W 10 14 - - - - 10 Partly cloudy - 22.7 997.1 1.4
23/02:00pm WNW 7 9 - - - - 10 Partly cloudy - 22.6 997.0 1.2
23/01:30pm WNW 5 7 - - - - 10 Partly cloudy - 21.2 997.0 1.0
23/01:00pm N 5 7 - - - - 10 Partly cloudy - 20.1 997.2 0.8
23/12:52pm NNE 6 8 - - - - 10 Partly cloudy - 19.7 997.4 0.8
23/12:30pm S 7 8 - - - - 10 Cloudy - 17.4 997.4 0.6
23/12:00pm SSW 5 6 - - - - 10 Mostly cloudy - 17.0 997.5 0.4
23/11:30am NE 5 7 - - - - 10 Partly cloudy - 16.3 997.6 0.4
23/11:13am ENE 7 9 - - - - 10 Partly cloudy - 16.1 996.7 0.4
23/11:00am ENE 7 8 - - - - 10 Partly cloudy - 15.8 997.5 0.4
23/10:54am E 6 8 - - - - 10 Partly cloudy - 15.8 997.3 0.4
23/10:40am E 5 7 - - - - 8 Partly cloudy - 15.6 997.4 0.2
23/10:30am SE 5 6 - - - - 5 Partly cloudy - 15.4 997.4 0.2
23/10:26am SE 5 7 - - - - 5 Cloudy - 15.4 997.6 0.2
23/10:03am SE 6 8 - - - - 9 Partly cloudy - 15.9 997.5 0.0
23/10:02am SE 7 9 - - - - 10 Partly cloudy - 15.7 997.5 0.0
23/10:00am SE 7 9 - - - - 10 Partly cloudy - 15.7 997.5 0.0
23/09:30am SSE 6 8 - - - - 10 Partly cloudy - 15.9 997.9 0.0
23/09:24am S 7 9 - - - - 10 Partly cloudy - 16.1 997.6 0.0
23/09:05am SSW 6 8 - - - - 5 Cloudy - 15.8 998.3 0.0
23/09:00am SSW 5 7 - - - - 9 Cloudy Recent precip. 15.9 998.3 0.4
23/08:30am SSW 1 4 - - - - 10 Cloudy - 16.2 997.9 0.2
23/08:00am SSE 5 7 - - - - 10 Partly cloudy - 15.9 996.4 0.2

Other formats

Comma delimited format used in spreadsheet applications
http://www.bom.gov.au/fwo/IDV60701/IDV60701.94912.axf

JavaScript Object Notation format (JSON) in row-major order
http://www.bom.gov.au/fwo/IDV60701/IDV60701.94912.json

Data quality

Most of these data are generated automatically and are frequently updated. Quality checks on data are not normally performed. It is possible for incorrect values to appear. Refer to information at About Latest Weather Observations and please check the disclaimer before using these data.